Time;durP1;ratioP1;P1;durP2;ratioP2;P2;SDS_P1;SDS_P2;PMS_P1;PMS_P2;Temp;Humidity;BMP_temperature;BMP_pressure;BME280_temperature;BME280_humidity;BME280_pressure;Samples;Min_cycle;Max_cycle;Signal;HPM_P1;HPM_P2
2023/05/16 00:02:23;;;;;;;0.20;0.20;;;;;;;13.46;100.00;98115.19;5073243;28;20040;-65
2023/05/16 00:04:54;;;;;;;0.20;0.20;;;;;;;13.55;100.00;98111.81;5073482;28;20051;-66
2023/05/16 00:07:22;;;;;;;0.20;0.20;;;;;;;13.59;100.00;98113.31;5074095;28;20121;-67
2023/05/16 00:09:48;;;;;;;0.20;0.20;;;;;;;13.68;100.00;98103.53;5075397;28;20033;-67
2023/05/16 00:12:16;;;;;;;0.20;0.20;;;;;;;13.68;100.00;98097.94;5073525;28;20028;-66
2023/05/16 00:14:45;;;;;;;0.20;0.20;;;;;;;13.68;100.00;98117.50;5073831;28;20521;-65
2023/05/16 00:17:16;;;;;;;0.30;0.30;;;;;;;13.61;100.00;98107.28;5073596;28;20046;-67
2023/05/16 00:19:46;;;;;;;0.30;0.30;;;;;;;13.63;100.00;98111.25;5073499;28;20513;-66
2023/05/16 00:22:11;;;;;;;0.20;0.20;;;;;;;13.63;100.00;98102.03;5074764;28;20024;-66
2023/05/16 00:24:39;;;;;;;0.20;0.20;;;;;;;13.57;100.00;98096.19;5073724;28;20360;-66
2023/05/16 00:27:05;;;;;;;0.20;0.20;;;;;;;13.56;100.00;98077.06;5073284;28;20024;-66
2023/05/16 00:29:33;;;;;;;0.20;0.20;;;;;;;13.56;100.00;98075.06;5072986;28;20155;-67
2023/05/16 00:32:01;;;;;;;0.20;0.20;;;;;;;13.65;100.00;98062.50;5073474;28;20036;-66
2023/05/16 00:34:29;;;;;;;0.20;0.20;;;;;;;13.60;100.00;98059.00;5073054;28;20024;-68
2023/05/16 00:37:00;;;;;;;0.20;0.20;;;;;;;13.64;100.00;98067.31;5073321;28;20451;-66
2023/05/16 00:39:29;;;;;;;0.20;0.20;;;;;;;13.62;100.00;98069.75;5072927;28;20028;-66
2023/05/16 00:41:56;;;;;;;0.20;0.20;;;;;;;13.83;100.00;98060.84;5073106;28;20433;-66
2023/05/16 00:44:22;;;;;;;0.20;0.20;;;;;;;13.81;100.00;98054.91;5072602;28;20115;-67
2023/05/16 00:46:47;;;;;;;0.30;0.30;;;;;;;13.75;100.00;98047.50;5072805;28;20075;-66
2023/05/16 00:49:13;;;;;;;0.20;0.20;;;;;;;13.68;100.00;98050.44;5072810;28;20551;-65
2023/05/16 00:51:41;;;;;;;0.20;0.20;;;;;;;13.60;100.00;98056.22;5072507;28;20056;-67
2023/05/16 00:54:07;;;;;;;0.20;0.20;;;;;;;13.48;100.00;98045.72;5072601;28;20028;-67
2023/05/16 00:56:35;;;;;;;0.20;0.20;;;;;;;13.55;100.00;98059.53;5072614;28;20029;-67
2023/05/16 00:59:02;;;;;;;0.20;0.20;;;;;;;13.56;100.00;98066.69;5072584;28;20034;-67
2023/05/16 01:01:31;;;;;;;0.20;0.20;;;;;;;13.49;100.00;98054.91;5072586;28;20083;-65
2023/05/16 01:03:59;;;;;;;0.20;0.20;;;;;;;13.31;100.00;98067.22;5073114;28;20345;-65
2023/05/16 01:06:27;;;;;;;0.20;0.20;;;;;;;13.25;100.00;98073.75;5072425;28;20024;-67
2023/05/16 01:08:53;;;;;;;0.20;0.20;;;;;;;13.17;100.00;98080.69;5073123;28;20133;-66
2023/05/16 01:11:33;;;;;;;0.30;0.30;;;;;;;13.14;100.00;98089.94;5072448;28;20514;-67
2023/05/16 01:14:10;;;;;;;0.20;0.20;;;;;;;13.22;100.00;98099.78;5073033;28;20028;-66
2023/05/16 01:16:41;;;;;;;0.30;0.30;;;;;;;13.22;100.00;98097.75;5072471;28;20043;-67
2023/05/16 01:19:31;;;;;;;0.20;0.20;;;;;;;13.33;100.00;98092.75;5072424;28;20028;-67
2023/05/16 01:22:15;;;;;;;0.20;0.20;;;;;;;13.32;100.00;98099.53;5070102;28;20028;-66
2023/05/16 01:24:54;;;;;;;0.20;0.20;;;;;;;13.36;100.00;98089.06;5072091;28;20024;-67
2023/05/16 01:27:23;;;;;;;0.20;0.20;;;;;;;13.33;100.00;98091.94;5072071;28;20040;-67
2023/05/16 01:29:57;;;;;;;0.20;0.20;;;;;;;13.37;100.00;98087.09;5072888;28;20109;-67
2023/05/16 01:32:28;;;;;;;0.20;0.20;;;;;;;13.37;100.00;98081.50;5072289;28;20043;-66
2023/05/16 01:34:53;;;;;;;0.20;0.20;;;;;;;13.41;100.00;98079.38;5072849;28;20052;-66
2023/05/16 01:37:34;;;;;;;0.20;0.20;;;;;;;13.46;100.00;98072.50;5072583;28;20468;-67
2023/05/16 01:40:10;;;;;;;0.20;0.20;;;;;;;13.47;100.00;98083.25;5072215;28;20025;-67
2023/05/16 01:42:41;;;;;;;0.20;0.20;;;;;;;13.60;100.00;98078.56;5073494;28;20025;-66
2023/05/16 01:45:31;;;;;;;0.20;0.20;;;;;;;13.54;100.00;98079.53;5072746;28;20105;-66
2023/05/16 01:48:21;;;;;;;0.20;0.20;;;;;;;13.54;100.00;98077.50;5072466;28;20029;-66
2023/05/16 01:50:53;;;;;;;0.20;0.20;;;;;;;13.59;100.00;98068.63;5060056;28;20032;-66
2023/05/16 01:53:25;;;;;;;0.20;0.20;;;;;;;13.58;100.00;98074.63;5071812;28;20451;-66
2023/05/16 01:55:52;;;;;;;0.25;0.25;;;;;;;13.51;100.00;98078.38;5055219;28;20117;-67
2023/05/16 01:58:25;;;;;;;0.20;0.20;;;;;;;13.44;100.00;98072.94;5072325;28;20170;-66
2023/05/16 02:01:02;;;;;;;0.30;0.30;;;;;;;13.58;100.00;98080.19;5072046;28;20025;-67
2023/05/16 02:03:31;;;;;;;0.20;0.20;;;;;;;13.59;100.00;98082.59;5072370;28;20079;-67
2023/05/16 02:06:00;;;;;;;0.20;0.20;;;;;;;13.48;100.00;98073.66;5073051;28;20028;-65
2023/05/16 02:08:28;;;;;;;0.30;0.30;;;;;;;13.73;100.00;98080.66;5073527;28;20032;-66
2023/05/16 02:10:54;;;;;;;0.30;0.30;;;;;;;13.73;100.00;98075.06;5075797;28;20060;-69
2023/05/16 02:13:22;;;;;;;0.30;0.30;;;;;;;13.76;100.00;98080.59;5076630;28;20039;-67
2023/05/16 02:15:47;;;;;;;0.20;0.20;;;;;;;13.72;100.00;98067.91;5074462;28;20078;-65
2023/05/16 02:18:16;;;;;;;0.20;0.20;;;;;;;13.47;100.00;98041.34;5072296;28;20037;-66
2023/05/16 02:20:41;;;;;;;0.20;0.20;;;;;;;13.67;100.00;98076.81;5072453;28;20036;-66
2023/05/16 02:23:09;;;;;;;0.20;0.20;;;;;;;13.70;100.00;98075.97;5071960;28;20517;-66
2023/05/16 02:25:37;;;;;;;0.20;0.20;;;;;;;13.66;100.00;98064.09;5074956;28;20028;-65
2023/05/16 02:28:03;;;;;;;0.30;0.30;;;;;;;13.58;100.00;98069.03;5075346;28;20107;-66
2023/05/16 02:30:33;;;;;;;0.20;0.20;;;;;;;13.62;100.00;98062.13;5075397;28;20450;-67
2023/05/16 02:33:01;;;;;;;0.20;0.20;;;;;;;13.50;100.00;98050.88;5075351;28;20030;-66
2023/05/16 02:35:26;;;;;;;0.20;0.20;;;;;;;13.35;100.00;98047.59;5075284;28;20025;-66
2023/05/16 02:37:54;;;;;;;0.20;0.20;;;;;;;13.29;100.00;98040.97;5075364;28;20040;-66
2023/05/16 02:40:22;;;;;;;0.20;0.20;;;;;;;13.26;100.00;98047.41;5075830;28;20374;-67
2023/05/16 02:42:47;;;;;;;0.20;0.20;;;;;;;13.28;100.00;98053.34;5075272;28;20028;-66
2023/05/16 02:45:17;;;;;;;0.30;0.30;;;;;;;13.12;100.00;98051.28;5075098;28;20031;-66
2023/05/16 02:47:48;;;;;;;0.25;0.25;;;;;;;13.20;100.00;98043.53;5075435;28;20032;-66
2023/05/16 02:50:16;;;;;;;0.30;0.30;;;;;;;13.22;100.00;98043.94;5075071;28;20031;-66
2023/05/16 02:52:44;;;;;;;0.20;0.20;;;;;;;13.28;100.00;98037.38;5074420;28;20060;-66
2023/05/16 02:55:14;;;;;;;0.20;0.20;;;;;;;13.32;100.00;98040.13;5075022;28;20021;-65
2023/05/16 02:57:39;;;;;;;0.20;0.20;;;;;;;13.03;100.00;97996.03;5075854;28;20121;-66
2023/05/16 03:00:10;;;;;;;0.20;0.20;;;;;;;13.27;100.00;98027.44;5075831;28;20032;-66
2023/05/16 03:02:36;;;;;;;0.20;0.20;;;;;;;13.22;100.00;98025.16;5070528;28;20028;-66
2023/05/16 03:05:04;;;;;;;0.20;0.20;;;;;;;13.20;100.00;98054.69;5074784;28;20035;-66
2023/05/16 03:07:32;;;;;;;0.22;0.22;;;;;;;13.19;100.00;98036.38;5075250;28;20039;-65
2023/05/16 03:10:02;;;;;;;0.20;0.20;;;;;;;13.18;100.00;98037.59;5074706;28;20193;-66
2023/05/16 03:12:31;;;;;;;0.28;0.28;;;;;;;13.15;100.00;98044.03;5075650;28;20032;-66
2023/05/16 03:15:02;;;;;;;0.20;0.20;;;;;;;13.21;100.00;98053.47;5074513;28;20087;-67
2023/05/16 03:17:31;;;;;;;0.20;0.20;;;;;;;13.13;100.00;98049.28;5074551;28;20064;-66
2023/05/16 03:19:57;;;;;;;0.30;0.30;;;;;;;13.11;100.00;98061.66;5074497;28;20025;-66
2023/05/16 03:22:25;;;;;;;0.20;0.20;;;;;;;13.19;100.00;98041.97;5074427;28;20119;-66
2023/05/16 03:24:53;;;;;;;0.30;0.30;;;;;;;13.11;100.00;98035.75;5074423;28;20078;-68
2023/05/16 03:27:25;;;;;;;0.20;0.20;;;;;;;12.98;100.00;98046.00;5074898;28;20032;-67
2023/05/16 03:29:55;;;;;;;0.30;0.30;;;;;;;12.95;100.00;98056.03;5074388;28;20039;-66
2023/05/16 03:32:23;;;;;;;0.20;0.20;;;;;;;13.04;100.00;98049.84;5074522;28;20024;-66
2023/05/16 03:34:53;;;;;;;0.20;0.20;;;;;;;12.97;100.00;98052.78;5074090;28;20124;-66
2023/05/16 03:37:19;;;;;;;0.20;0.20;;;;;;;12.90;100.00;98062.09;5073465;28;20024;-66
2023/05/16 03:39:47;;;;;;;0.20;0.20;;;;;;;13.00;100.00;98069.47;5074104;28;20037;-65
2023/05/16 03:42:17;;;;;;;0.20;0.20;;;;;;;12.95;100.00;98061.59;5073971;28;20021;-67
2023/05/16 03:44:42;;;;;;;0.20;0.20;;;;;;;12.99;100.00;98055.94;5073977;28;20036;-66
2023/05/16 03:47:10;;;;;;;0.20;0.20;;;;;;;13.05;100.00;98066.19;5074541;28;20032;-69
2023/05/16 03:49:39;;;;;;;0.20;0.20;;;;;;;12.94;100.00;98075.97;5073919;28;20056;-66
2023/05/16 03:52:07;;;;;;;0.20;0.20;;;;;;;12.93;100.00;98079.97;5073531;28;20091;-66
2023/05/16 03:54:33;;;;;;;0.20;0.20;;;;;;;12.91;100.00;98083.22;5073714;28;20036;-65
2023/05/16 03:57:04;;;;;;;0.20;0.20;;;;;;;12.88;100.00;98088.84;5074067;28;20036;-67
2023/05/16 03:59:35;;;;;;;0.25;0.25;;;;;;;12.87;100.00;98088.06;5073704;28;20021;-66
2023/05/16 04:02:06;;;;;;;0.20;0.20;;;;;;;12.94;100.00;98093.50;5073614;28;20025;-66
2023/05/16 04:04:34;;;;;;;0.20;0.20;;;;;;;13.06;100.00;98095.66;5073585;28;20021;-67
2023/05/16 04:07:02;;;;;;;0.20;0.20;;;;;;;13.10;100.00;98099.19;5073528;28;20085;-66
2023/05/16 04:09:28;;;;;;;0.20;0.20;;;;;;;13.08;100.00;98096.00;5073521;28;20114;-67
2023/05/16 04:11:56;;;;;;;0.20;0.20;;;;;;;13.04;100.00;98098.09;5073780;28;20044;-67
2023/05/16 04:14:24;;;;;;;0.20;0.20;;;;;;;13.05;100.00;98108.06;5073878;28;20412;-67
2023/05/16 04:16:50;;;;;;;0.20;0.20;;;;;;;13.13;100.00;98110.69;5073400;28;20032;-67
2023/05/16 04:19:16;;;;;;;0.20;0.20;;;;;;;13.21;100.00;98112.09;5073355;28;20094;-66
2023/05/16 04:21:41;;;;;;;0.20;0.20;;;;;;;13.23;100.00;98120.88;5073249;28;20128;-66
2023/05/16 04:24:07;;;;;;;0.20;0.20;;;;;;;13.26;100.00;98125.59;5073267;28;20021;-67
2023/05/16 04:26:36;;;;;;;0.20;0.20;;;;;;;13.21;100.00;98123.28;5073421;28;20063;-66
2023/05/16 04:29:04;;;;;;;0.20;0.20;;;;;;;13.29;100.00;98124.75;5073669;28;20391;-67
2023/05/16 04:31:33;;;;;;;0.20;0.20;;;;;;;13.22;100.00;98124.91;5073109;28;20037;-67
2023/05/16 04:34:01;;;;;;;0.20;0.20;;;;;;;13.14;100.00;98129.81;5073570;28;20028;-67
2023/05/16 04:36:28;;;;;;;0.20;0.20;;;;;;;13.07;100.00;98122.38;5073322;28;20032;-66
2023/05/16 04:38:57;;;;;;;0.20;0.20;;;;;;;13.09;100.00;98133.88;5073526;28;20027;-66
2023/05/16 04:41:26;;;;;;;0.20;0.20;;;;;;;13.15;100.00;98136.94;5072940;28;20035;-66
2023/05/16 04:43:52;;;;;;;0.20;0.20;;;;;;;13.05;100.00;98133.19;5073423;28;20037;-67
2023/05/16 04:46:20;;;;;;;0.20;0.20;;;;;;;13.14;100.00;98129.00;5072691;28;20032;-65
2023/05/16 04:48:48;;;;;;;0.20;0.20;;;;;;;13.10;100.00;98129.91;5071913;28;20052;-66
2023/05/16 04:51:16;;;;;;;0.20;0.20;;;;;;;13.13;100.00;98133.81;5072891;28;20032;-68
2023/05/16 04:53:44;;;;;;;0.20;0.20;;;;;;;13.07;100.00;98135.53;5072570;28;20036;-66
2023/05/16 04:56:09;;;;;;;0.20;0.20;;;;;;;13.14;100.00;98124.22;5072712;28;20040;-66
2023/05/16 04:58:37;;;;;;;0.20;0.20;;;;;;;13.13;100.00;98133.03;5072648;28;20028;-65
2023/05/16 05:01:06;;;;;;;0.20;0.20;;;;;;;13.10;100.00;98132.69;5072655;28;20063;-67
2023/05/16 05:03:37;;;;;;;0.20;0.20;;;;;;;13.20;100.00;98149.63;5073206;28;20025;-67
2023/05/16 05:06:06;;;;;;;0.20;0.20;;;;;;;13.16;100.00;98137.78;5072357;28;20033;-67
2023/05/16 05:08:34;;;;;;;0.30;0.30;;;;;;;13.19;100.00;98148.06;5073093;28;20411;-66
2023/05/16 05:11:04;;;;;;;0.20;0.20;;;;;;;13.22;100.00;98153.63;5072782;28;20394;-67
2023/05/16 05:13:35;;;;;;;0.20;0.20;;;;;;;13.31;100.00;98155.81;5072485;28;20021;-66
2023/05/16 05:16:06;;;;;;;0.20;0.20;;;;;;;13.23;100.00;98157.97;5072712;28;20033;-67
2023/05/16 05:18:34;;;;;;;0.20;0.20;;;;;;;13.33;100.00;98165.34;5072765;28;20028;-67
2023/05/16 05:21:01;;;;;;;0.20;0.20;;;;;;;13.42;100.00;98161.97;5072434;28;20032;-67
2023/05/16 05:23:27;;;;;;;0.20;0.20;;;;;;;13.40;100.00;98164.41;5072446;28;20056;-67
2023/05/16 05:25:53;;;;;;;0.20;0.20;;;;;;;13.59;100.00;98160.81;5072350;28;20130;-66
2023/05/16 05:28:21;;;;;;;0.20;0.20;;;;;;;13.61;100.00;98175.13;5072868;28;20064;-67
2023/05/16 05:30:49;;;;;;;0.25;0.25;;;;;;;13.53;100.00;98170.94;5072381;28;20036;-68
2023/05/16 05:33:20;;;;;;;0.20;0.20;;;;;;;13.48;100.00;98154.69;5073971;28;20031;-67
2023/05/16 05:35:52;;;;;;;0.20;0.20;;;;;;;13.62;100.00;98176.72;5072191;28;20028;-66
2023/05/16 05:38:18;;;;;;;0.20;0.20;;;;;;;13.61;100.00;98180.72;5072898;28;20029;-66
2023/05/16 05:40:44;;;;;;;0.20;0.20;;;;;;;13.73;100.00;98175.69;5072288;28;20029;-68
2023/05/16 05:43:10;;;;;;;0.20;0.20;;;;;;;13.73;100.00;98181.28;5072413;28;20055;-67
2023/05/16 05:45:38;;;;;;;0.20;0.20;;;;;;;13.71;100.00;98183.72;5072635;28;20032;-67
2023/05/16 05:48:04;;;;;;;0.20;0.20;;;;;;;13.66;100.00;98182.22;5073353;28;20070;-67
2023/05/16 05:50:32;;;;;;;0.20;0.20;;;;;;;13.72;100.00;98190.88;5074014;28;20486;-70
2023/05/16 05:53:01;;;;;;;0.20;0.20;;;;;;;13.76;100.00;98197.19;5075336;28;20053;-68
2023/05/16 05:55:27;;;;;;;0.20;0.20;;;;;;;13.75;100.00;98201.22;5074198;28;20029;-66
2023/05/16 05:57:57;;;;;;;0.20;0.20;;;;;;;13.71;100.00;98195.69;5072628;28;20029;-67
2023/05/16 06:00:22;;;;;;;0.20;0.20;;;;;;;13.68;100.00;98190.16;5075313;28;20020;-67
2023/05/16 06:02:48;;;;;;;0.20;0.20;;;;;;;13.70;100.00;98190.53;5076038;28;20077;-66
2023/05/16 06:05:14;;;;;;;0.20;0.20;;;;;;;13.74;100.00;98196.81;5076006;28;20024;-67
2023/05/16 06:07:42;;;;;;;0.20;0.20;;;;;;;13.95;100.00;98199.16;5075747;28;20060;-67
2023/05/16 06:10:12;;;;;;;0.20;0.20;;;;;;;13.92;100.00;98202.81;5076122;28;20021;-66
2023/05/16 06:12:40;;;;;;;0.20;0.20;;;;;;;13.88;100.00;98205.69;5076534;28;20028;-66
2023/05/16 06:15:09;;;;;;;0.20;0.20;;;;;;;13.87;100.00;98197.75;5075942;28;20036;-67
2023/05/16 06:17:37;;;;;;;0.20;0.20;;;;;;;13.96;100.00;98205.56;5075705;28;20120;-67
2023/05/16 06:20:05;;;;;;;0.20;0.20;;;;;;;13.92;100.00;98202.81;5076896;28;20039;-67
2023/05/16 06:22:33;;;;;;;0.30;0.30;;;;;;;14.05;100.00;98214.91;5075633;28;20116;-66
2023/05/16 06:25:01;;;;;;;0.20;0.20;;;;;;;14.10;100.00;98222.78;5075527;28;20052;-68
2023/05/16 06:27:27;;;;;;;0.20;0.20;;;;;;;14.05;100.00;98214.91;5076337;28;20447;-67
2023/05/16 06:29:56;;;;;;;0.20;0.20;;;;;;;14.09;100.00;98217.63;5075434;28;20052;-66
2023/05/16 06:32:24;;;;;;;0.30;0.30;;;;;;;13.98;100.00;98203.88;5075466;28;20040;-66
2023/05/16 06:34:54;;;;;;;0.20;0.20;;;;;;;14.13;100.00;98221.91;5075239;28;20471;-67
2023/05/16 06:37:22;;;;;;;0.20;0.20;;;;;;;14.26;100.00;98230.41;5075362;28;20036;-66
2023/05/16 06:39:50;;;;;;;0.20;0.20;;;;;;;14.30;100.00;98231.13;5075108;28;20028;-66
2023/05/16 06:42:20;;;;;;;0.20;0.20;;;;;;;14.44;100.00;98227.22;5074942;28;20043;-68
2023/05/16 06:44:46;;;;;;;0.20;0.20;;;;;;;14.51;100.00;98238.25;5074830;28;20028;-66
2023/05/16 06:47:11;;;;;;;0.20;0.20;;;;;;;14.47;100.00;98228.34;5075334;28;20162;-67
2023/05/16 06:49:39;;;;;;;0.20;0.20;;;;;;;14.56;100.00;98248.94;5074779;28;20020;-67
2023/05/16 06:52:07;;;;;;;0.20;0.20;;;;;;;14.58;100.00;98235.28;5074584;28;20483;-67
2023/05/16 06:54:33;;;;;;;0.20;0.20;;;;;;;14.56;100.00;98232.13;5075004;28;20029;-65
2023/05/16 06:57:04;;;;;;;0.20;0.20;;;;;;;14.63;100.00;98231.94;5076044;28;20513;-67
2023/05/16 06:59:29;;;;;;;0.20;0.20;;;;;;;14.74;100.00;98247.69;5074714;28;20025;-64
2023/05/16 07:01:55;;;;;;;0.20;0.20;;;;;;;14.77;100.00;98250.41;5075022;28;20032;-65
2023/05/16 07:04:20;;;;;;;0.28;0.28;;;;;;;14.76;100.00;98253.66;5074685;28;20490;-66
2023/05/16 07:06:51;;;;;;;0.20;0.20;;;;;;;14.86;100.00;98255.38;5074577;28;20036;-66
2023/05/16 07:09:20;;;;;;;0.20;0.20;;;;;;;14.94;100.00;98254.00;5074793;28;20056;-65
2023/05/16 07:11:50;;;;;;;0.20;0.20;;;;;;;15.12;100.00;98265.50;5073408;28;20064;-65
2023/05/16 07:14:18;;;;;;;0.20;0.20;;;;;;;15.36;100.00;98251.28;5074450;28;20460;-65
2023/05/16 07:16:49;;;;;;;0.20;0.20;;;;;;;15.58;100.00;98262.69;5075373;28;20039;-66
2023/05/16 07:19:15;;;;;;;0.20;0.20;;;;;;;15.86;100.00;98261.13;5074362;28;20032;-66
2023/05/16 07:21:40;;;;;;;0.20;0.20;;;;;;;16.00;100.00;98257.91;5074871;28;20082;-66
2023/05/16 07:24:11;;;;;;;0.20;0.20;;;;;;;16.24;100.00;98276.03;5073943;28;20376;-64
2023/05/16 07:26:37;;;;;;;0.20;0.20;;;;;;;16.26;100.00;98269.19;5074198;28;20031;-66
2023/05/16 07:29:07;;;;;;;0.30;0.30;;;;;;;16.37;100.00;98273.22;5074459;28;20020;-66
2023/05/16 07:31:33;;;;;;;0.20;0.20;;;;;;;16.19;100.00;98259.75;5074133;28;20028;-65
2023/05/16 07:34:01;;;;;;;0.20;0.20;;;;;;;16.44;100.00;98280.63;5073963;28;20086;-65
2023/05/16 07:36:34;;;;;;;0.20;0.20;;;;;;;16.72;100.00;98279.78;5074586;28;20073;-65
2023/05/16 07:39:04;;;;;;;0.20;0.20;;;;;;;16.92;100.00;98275.91;5074012;28;20028;-65
2023/05/16 07:41:35;;;;;;;0.20;0.20;;;;;;;16.86;100.00;98277.72;5073936;28;20028;-65
2023/05/16 07:44:03;;;;;;;0.20;0.20;;;;;;;17.10;100.00;98280.94;5074136;28;20020;-66
2023/05/16 07:46:29;;;;;;;0.20;0.20;;;;;;;17.02;100.00;98286.00;5074410;28;20028;-65
2023/05/16 07:49:00;;;;;;;0.20;0.20;;;;;;;17.12;100.00;98284.88;5073810;28;20367;-64
2023/05/16 07:51:28;;;;;;;0.20;0.20;;;;;;;17.29;100.00;98300.31;5073504;28;20032;-64
2023/05/16 07:53:58;;;;;;;0.20;0.20;;;;;;;17.02;100.00;98298.03;5074168;28;20475;-65
2023/05/16 07:56:24;;;;;;;0.20;0.20;;;;;;;16.60;100.00;98302.19;5074029;28;20498;-65
2023/05/16 07:58:50;;;;;;;0.20;0.20;;;;;;;16.24;100.00;98301.28;5073723;28;20541;-65
2023/05/16 08:01:21;;;;;;;0.20;0.20;;;;;;;15.98;100.00;98305.25;5073718;28;20119;-66
2023/05/16 08:03:49;;;;;;;0.28;0.28;;;;;;;16.00;100.00;98314.00;5073655;28;20035;-65
2023/05/16 08:06:17;;;;;;;0.20;0.20;;;;;;;16.23;100.00;98316.53;5073990;28;20379;-66
2023/05/16 08:08:42;;;;;;;0.20;0.20;;;;;;;16.88;100.00;98322.97;5073376;28;20020;-67
2023/05/16 08:11:10;;;;;;;0.20;0.20;;;;;;;17.08;100.00;98320.72;5073344;28;20035;-67
2023/05/16 08:13:36;;;;;;;0.20;0.20;;;;;;;16.67;100.00;98314.00;5073611;28;20025;-65
2023/05/16 08:16:01;;;;;;;0.20;0.20;;;;;;;17.25;100.00;98324.94;5073212;28;20051;-66
2023/05/16 08:18:29;;;;;;;0.20;0.20;;;;;;;16.93;100.00;98328.03;5073202;28;20027;-64
2023/05/16 08:20:55;;;;;;;0.20;0.20;;;;;;;17.06;100.00;98330.84;5073786;28;20455;-65
2023/05/16 08:23:21;;;;;;;0.20;0.20;;;;;;;17.00;100.00;98345.47;5072765;28;20119;-66
2023/05/16 08:25:46;;;;;;;0.20;0.20;;;;;;;16.96;100.00;98338.38;5073060;28;20032;-66
2023/05/16 08:28:12;;;;;;;0.20;0.20;;;;;;;16.69;100.00;98348.03;5073060;28;20052;-65
2023/05/16 08:30:40;;;;;;;0.22;0.22;;;;;;;16.54;100.00;98346.09;5073838;28;20115;-65
2023/05/16 08:33:09;;;;;;;0.30;0.30;;;;;;;16.55;100.00;98348.44;5073516;28;20060;-66
2023/05/16 08:35:34;;;;;;;0.20;0.20;;;;;;;16.71;100.00;98362.41;5073073;28;20036;-66
2023/05/16 08:38:01;;;;;;;0.20;0.20;;;;;;;16.52;100.00;98354.19;5073233;28;20024;-64
2023/05/16 08:40:30;;;;;;;0.20;0.20;;;;;;;16.71;100.00;98368.03;5073331;28;20039;-66
2023/05/16 08:42:59;;;;;;;0.20;0.20;;;;;;;16.63;100.00;98371.50;5074146;28;20055;-66
2023/05/16 08:45:30;;;;;;;0.20;0.20;;;;;;;16.71;100.00;98368.03;5073473;28;20064;-66
2023/05/16 08:48:02;;;;;;;0.20;0.20;;;;;;;17.23;100.00;98374.44;5072944;28;20111;-66
2023/05/16 08:50:31;;;;;;;0.20;0.20;;;;;;;17.15;100.00;98378.69;5074962;28;20035;-66
2023/05/16 08:53:00;;;;;;;0.20;0.20;;;;;;;17.13;100.00;98393.22;5073070;28;20063;-65
2023/05/16 08:55:28;;;;;;;0.20;0.20;;;;;;;17.36;100.00;98399.69;5073630;28;20402;-66
2023/05/16 08:57:54;;;;;;;0.20;0.20;;;;;;;17.53;100.00;98403.97;5073019;28;20032;-66
2023/05/16 09:00:21;;;;;;;0.20;0.20;;;;;;;18.44;100.00;98414.47;5072642;28;20031;-67
2023/05/16 09:02:52;;;;;;;0.20;0.20;;;;;;;18.52;99.61;98410.13;5072512;28;20040;-65
2023/05/16 09:05:18;;;;;;;0.20;0.20;;;;;;;18.60;99.09;98411.44;5073041;28;20028;-64
2023/05/16 09:07:46;;;;;;;0.20;0.20;;;;;;;18.87;95.64;98418.50;5072512;28;20429;-67
2023/05/16 09:10:14;;;;;;;0.20;0.20;;;;;;;19.07;94.96;98424.56;5072424;28;20487;-65
2023/05/16 09:12:40;;;;;;;0.20;0.20;;;;;;;19.92;91.03;98416.63;5072120;28;20081;-66
2023/05/16 09:15:10;;;;;;;0.20;0.20;;;;;;;19.44;89.39;98416.22;5073195;28;20474;-65
2023/05/16 09:17:43;;;;;;;0.20;0.20;;;;;;;19.37;86.34;98418.06;5073942;28;20550;-65
2023/05/16 09:20:12;;;;;;;;;;;;;;;19.94;84.76;98425.44;5056379;28;20028;-66
2023/05/16 09:22:38;;;;;;;0.20;0.20;;;;;;;19.35;82.79;98431.09;5072336;28;19909;-65
2023/05/16 09:25:04;;;;;;;0.20;0.20;;;;;;;19.20;81.98;98425.22;5072310;28;20025;-66
2023/05/16 09:27:36;;;;;;;0.20;0.20;;;;;;;18.61;85.31;98424.28;5072564;28;20028;-66
2023/05/16 09:30:04;;;;;;;0.22;0.22;;;;;;;18.52;85.05;98427.03;5072268;28;20037;-65
2023/05/16 09:32:32;;;;;;;0.20;0.20;;;;;;;18.49;87.37;98437.19;5072171;28;20029;-66
2023/05/16 09:35:00;;;;;;;0.20;0.20;;;;;;;18.17;89.31;98443.97;5074586;28;20025;-65
2023/05/16 09:37:29;;;;;;;0.20;0.20;;;;;;;17.80;89.77;98438.00;5076379;28;20025;-65
2023/05/16 09:39:58;;;;;;;0.20;0.20;;;;;;;18.04;89.65;98434.78;5060024;28;20525;-65
2023/05/16 09:42:26;;;;;;;0.20;0.20;;;;;;;17.77;91.84;98443.75;5076511;28;20025;-66
2023/05/16 09:44:56;;;;;;;0.20;0.20;;;;;;;17.89;93.95;98442.16;5076429;28;20036;-65
2023/05/16 09:47:26;;;;;;;0.20;0.20;;;;;;;18.01;91.78;98399.13;5076129;28;20510;-65
2023/05/16 09:49:55;;;;;;;0.20;0.20;;;;;;;18.32;89.88;98442.22;5077579;28;20032;-64
2023/05/16 09:52:20;;;;;;;0.20;0.20;;;;;;;18.46;89.74;98442.94;5075633;28;20053;-66
2023/05/16 09:54:49;;;;;;;0.20;0.20;;;;;;;18.43;90.57;98444.66;5075937;28;20021;-66
2023/05/16 09:57:41;;;;;;;0.20;0.20;;;;;;;17.91;90.51;98448.91;5076753;28;20478;-67
2023/05/16 10:00:13;;;;;;;0.20;0.20;;;;;;;17.72;90.58;98444.28;5077335;28;20024;-66
2023/05/16 10:02:39;;;;;;;0.20;0.20;;;;;;;17.87;91.37;98445.41;5075900;28;20086;-64
2023/05/16 10:05:05;;;;;;;0.20;0.20;;;;;;;17.69;94.46;98451.63;5075563;28;20028;-65
2023/05/16 10:07:37;;;;;;;0.20;0.20;;;;;;;17.64;95.74;98459.84;5075708;28;20025;-66
2023/05/16 10:10:14;;;;;;;0.20;0.20;;;;;;;17.62;94.54;98463.09;5077313;28;20462;-66
2023/05/16 10:12:44;;;;;;;0.20;0.20;;;;;;;17.50;95.74;98455.47;5076617;28;20040;-65
2023/05/16 10:15:10;;;;;;;0.20;0.20;;;;;;;17.57;96.54;98472.09;5076128;28;20024;-65
2023/05/16 10:17:44;;;;;;;0.20;0.20;;;;;;;17.60;99.42;98473.25;5075529;28;20028;-65
2023/05/16 10:20:11;;;;;;;0.20;0.20;;;;;;;17.58;100.00;98467.25;5075579;28;20497;-66
2023/05/16 10:22:42;;;;;;;0.20;0.20;;;;;;;17.62;100.00;98467.94;5075547;28;20036;-66
2023/05/16 10:25:14;;;;;;;0.20;0.20;;;;;;;17.60;100.00;98474.03;5075804;28;20049;-64
2023/05/16 10:27:46;;;;;;;0.20;0.20;;;;;;;17.48;100.00;98484.03;5076940;28;20028;-66
2023/05/16 10:30:17;;;;;;;0.20;0.20;;;;;;;17.49;100.00;98471.56;5075347;28;20267;-65
2023/05/16 10:32:50;;;;;;;0.20;0.20;;;;;;;17.58;100.00;98476.50;5075874;28;20025;-66
2023/05/16 10:35:18;;;;;;;0.20;0.20;;;;;;;17.95;100.00;98482.53;5075245;28;20048;-66
2023/05/16 10:37:47;;;;;;;0.20;0.20;;;;;;;18.04;100.00;98483.41;5075246;28;20050;-65
2023/05/16 10:40:13;;;;;;;0.20;0.20;;;;;;;17.60;99.18;98485.28;5075418;28;20383;-65
2023/05/16 10:42:43;;;;;;;0.20;0.20;;;;;;;17.51;100.00;98482.34;5076128;28;20029;-66
2023/05/16 10:45:15;;;;;;;0.20;0.20;;;;;;;17.48;100.00;98486.06;5075319;28;20067;-65
2023/05/16 10:47:52;;;;;;;0.20;0.20;;;;;;;17.29;100.00;98497.06;5075808;28;20344;-66
2023/05/16 10:50:39;;;;;;;0.30;0.30;;;;;;;17.02;100.00;98485.47;5074701;28;20041;-66
2023/05/16 10:53:33;;;;;;;0.20;0.20;;;;;;;17.27;100.00;98487.53;5058045;28;20047;-65
2023/05/16 10:55:59;;;;;;;0.20;0.20;;;;;;;17.26;100.00;98492.38;5074787;28;20028;-65
2023/05/16 10:58:39;;;;;;;0.20;0.20;;;;;;;17.60;100.00;98496.53;5074766;28;20028;-66
2023/05/16 11:01:14;;;;;;;0.20;0.20;;;;;;;17.40;100.00;98501.59;5074699;28;20471;-66
2023/05/16 11:04:09;;;;;;;0.20;0.20;;;;;;;17.03;100.00;98489.84;5074578;28;20032;-67
2023/05/16 11:06:40;;;;;;;0.20;0.20;;;;;;;17.16;100.00;98501.91;5074840;28;20468;-66
2023/05/16 11:09:20;;;;;;;0.20;0.20;;;;;;;17.00;100.00;98502.00;5074843;28;20028;-65
2023/05/16 11:11:57;;;;;;;0.20;0.20;;;;;;;16.85;100.00;98500.84;5075149;28;20028;-66
2023/05/16 11:14:32;;;;;;;0.20;0.20;;;;;;;16.53;100.00;98485.69;5074073;28;20028;-66
2023/05/16 11:17:13;;;;;;;0.20;0.20;;;;;;;16.89;100.00;98512.78;5074419;28;20112;-66
2023/05/16 11:19:45;;;;;;;0.20;0.20;;;;;;;16.99;100.00;98504.03;5074292;28;20047;-67
2023/05/16 11:22:20;;;;;;;0.20;0.20;;;;;;;16.75;100.00;98514.75;5074887;28;20025;-67
2023/05/16 11:25:00;;;;;;;0.20;0.20;;;;;;;16.43;100.00;98521.22;5075061;28;20396;-67
2023/05/16 11:27:28;;;;;;;0.20;0.20;;;;;;;16.19;100.00;98523.50;5074892;28;20032;-65
2023/05/16 11:30:06;;;;;;;0.20;0.20;;;;;;;16.11;100.00;98521.31;5074531;28;20078;-69
2023/05/16 11:32:36;;;;;;;0.20;0.20;;;;;;;15.76;100.00;98531.38;5075112;28;20046;-66
2023/05/16 11:35:03;;;;;;;0.20;0.20;;;;;;;15.82;100.00;98527.66;5075734;28;20032;-67
2023/05/16 11:37:29;;;;;;;0.20;0.20;;;;;;;15.52;100.00;98531.53;5074241;28;20036;-66